Time;durP1;ratioP1;P1;durP2;ratioP2;P2;SDS_P1;SDS_P2;PMS_P1;PMS_P2;Temp;Humidity;BMP_temperature;BMP_pressure;BME280_temperature;BME280_humidity;BME280_pressure;Samples;Min_cycle;Max_cycle;Signal;HPM_P1;HPM_P2
2021/09/28 00:00:45;;;;;;;4.50;2.10;;;16.00;99.90;;;;;;6086419;23;20917;-85
2021/09/28 00:03:12;;;;;;;4.87;2.00;;;16.20;99.90;;;;;;6111954;23;20416;-84
2021/09/28 00:05:44;;;;;;;7.00;2.17;;;16.20;99.90;;;;;;6111639;23;20545;-85
2021/09/28 00:08:11;;;;;;;10.40;2.90;;;16.20;99.90;;;;;;6087566;23;20403;-86
2021/09/28 00:10:37;;;;;;;5.23;2.10;;;16.40;99.90;;;;;;6079830;23;20433;-85
2021/09/28 00:13:08;;;;;;;6.63;1.70;;;16.30;99.90;;;;;;6111246;23;20413;-84
2021/09/28 00:15:35;;;;;;;3.50;1.87;;;16.30;99.90;;;;;;6084866;23;20461;-85
2021/09/28 00:18:02;;;;;;;8.60;2.57;;;16.20;99.90;;;;;;6083517;23;21049;-85
2021/09/28 00:20:37;;;;;;;5.80;2.63;;;16.10;99.90;;;;;;6083179;23;20396;-85
2021/09/28 00:23:13;;;;;;;6.67;2.13;;;16.10;99.90;;;;;;6084541;23;20478;-86
2021/09/28 00:25:41;;;;;;;5.90;2.50;;;16.00;99.90;;;;;;6110612;23;21395;-86
2021/09/28 00:28:10;;;;;;;4.80;2.67;;;15.90;99.90;;;;;;6082168;23;20425;-84
2021/09/28 00:30:37;;;;;;;7.10;3.03;;;16.00;99.90;;;;;;6111729;23;21237;-85
2021/09/28 00:33:04;;;;;;;8.67;2.47;;;15.90;99.90;;;;;;6110604;23;20482;-87
2021/09/28 00:35:31;;;;;;;6.10;2.20;;;15.70;99.90;;;;;;6077414;23;20418;-86
2021/09/28 00:37:58;;;;;;;9.70;2.63;;;15.90;99.90;;;;;;6107056;23;20422;-85
2021/09/28 00:40:25;;;;;;;8.27;2.93;;;15.80;99.90;;;;;;6082003;23;20414;-84
2021/09/28 00:42:51;;;;;;;7.87;2.57;;;16.00;99.90;;;;;;6103469;23;20470;-86
2021/09/28 00:45:19;;;;;;;7.03;2.50;;;15.80;99.90;;;;;;6019811;23;20537;-84
2021/09/28 00:47:45;;;;;;;5.17;3.17;;;15.70;99.90;;;;;;6074107;23;21291;-85
2021/09/28 00:50:13;;;;;;;7.00;2.90;;;15.50;99.90;;;;;;6119242;23;20710;-86
2021/09/28 00:52:40;;;;;;;6.20;2.37;;;15.50;99.90;;;;;;6118929;23;21136;-85
2021/09/28 00:55:07;;;;;;;6.90;2.40;;;15.80;99.90;;;;;;6113876;23;20403;-86
2021/09/28 00:57:35;;;;;;;5.10;2.10;;;15.80;99.90;;;;;;6086321;23;20415;-86
2021/09/28 01:00:04;;;;;;;5.67;2.80;;;15.80;99.90;;;;;;6086230;23;20423;-86
2021/09/28 01:02:31;;;;;;;6.03;2.13;;;15.70;99.90;;;;;;6108450;23;20508;-88
2021/09/28 01:05:02;;;;;;;7.33;2.87;;;15.70;99.90;;;;;;6108450;23;20415;-85
2021/09/28 01:07:30;;;;;;;4.70;2.50;;;15.60;99.90;;;;;;6083365;23;21389;-85
2021/09/28 01:10:00;;;;;;;5.23;2.00;;;15.60;99.90;;;;;;6100310;23;20444;-86
2021/09/28 01:12:29;;;;;;;4.87;2.50;;;15.50;99.90;;;;;;6084059;23;21022;-86
2021/09/28 01:14:56;;;;;;;5.03;2.17;;;15.50;99.90;;;;;;6081144;23;20410;-86
2021/09/28 01:17:23;;;;;;;5.73;2.00;;;15.40;99.90;;;;;;6109338;23;21194;-83
2021/09/28 01:19:49;;;;;;;4.73;2.63;;;15.30;99.90;;;;;;6103585;23;20894;-85
2021/09/28 01:22:17;;;;;;;4.63;2.20;;;15.50;99.90;;;;;;6111327;23;20422;-84
2021/09/28 01:24:47;;;;;;;6.60;2.77;;;15.50;99.90;;;;;;6112139;23;20441;-87
2021/09/28 01:27:15;;;;;;;6.60;2.30;;;15.40;99.90;;;;;;6106818;23;21280;-86
2021/09/28 01:29:45;;;;;;;7.07;2.80;;;15.40;99.90;;;;;;6084250;23;20445;-86
2021/09/28 01:32:12;;;;;;;8.30;3.17;;;15.30;99.90;;;;;;6093576;23;20477;-87
2021/09/28 01:34:40;;;;;;;4.60;2.60;;;15.10;99.90;;;;;;6085879;23;20899;-86
2021/09/28 01:37:06;;;;;;;4.87;2.80;;;15.20;99.90;;;;;;6106318;23;20502;-86
2021/09/28 01:39:33;;;;;;;5.80;3.37;;;15.10;99.90;;;;;;6113701;23;20438;-86
2021/09/28 01:42:00;;;;;;;5.30;1.77;;;15.10;99.90;;;;;;6111809;23;20910;-85
2021/09/28 01:44:27;;;;;;;5.70;2.60;;;15.10;99.90;;;;;;6086019;23;20494;-86
2021/09/28 01:46:57;;;;;;;6.00;2.30;;;15.30;99.90;;;;;;6091119;23;20493;-87
2021/09/28 01:49:26;;;;;;;7.90;2.70;;;15.40;99.90;;;;;;6090676;23;20445;-85
2021/09/28 01:51:56;;;;;;;6.67;2.70;;;15.30;99.90;;;;;;6087633;23;20537;-84
2021/09/28 01:54:23;;;;;;;5.23;2.47;;;15.30;99.90;;;;;;6110883;23;20410;-85
2021/09/28 01:56:50;;;;;;;6.67;2.50;;;15.20;99.90;;;;;;6109007;23;20402;-86
2021/09/28 01:59:17;;;;;;;5.30;2.60;;;15.10;99.90;;;;;;6086382;23;20454;-84
2021/09/28 02:01:48;;;;;;;6.10;2.90;;;15.20;99.90;;;;;;6087335;23;20395;-86
2021/09/28 02:04:15;;;;;;;6.10;3.07;;;15.40;99.90;;;;;;6112131;23;20411;-83
2021/09/28 02:06:44;;;;;;;4.17;2.30;;;15.40;99.90;;;;;;6086745;23;20406;-86
2021/09/28 02:09:10;;;;;;;3.70;2.37;;;15.30;99.90;;;;;;6087928;23;20899;-83
2021/09/28 02:11:38;;;;;;;4.90;2.40;;;15.30;99.90;;;;;;6114845;23;20446;-85
2021/09/28 02:14:06;;;;;;;4.40;2.37;;;15.30;99.90;;;;;;6108205;23;20411;-84
2021/09/28 02:16:33;;;;;;;7.53;2.30;;;15.20;99.90;;;;;;6113711;23;20407;-84
2021/09/28 02:19:00;;;;;;;4.73;2.70;;;15.30;99.90;;;;;;6086686;23;20458;-84
2021/09/28 02:21:26;;;;;;;5.47;3.00;;;15.30;99.90;;;;;;6086566;23;20489;-85
2021/09/28 02:23:53;;;;;;;6.83;2.30;;;15.20;99.90;;;;;;6100364;23;20426;-86
2021/09/28 02:26:20;;;;;;;3.97;2.40;;;15.00;99.90;;;;;;6093012;23;20410;-83
2021/09/28 02:28:47;;;;;;;3.93;2.13;;;15.00;99.90;;;;;;6113883;23;20430;-83
2021/09/28 02:31:16;;;;;;;7.17;2.43;;;14.90;99.90;;;;;;6115655;23;20727;-85
2021/09/28 02:33:49;;;;;;;3.73;2.50;;;14.70;99.90;;;;;;6117030;23;21107;-83
2021/09/28 02:36:16;;;;;;;5.60;2.23;;;14.70;99.90;;;;;;6091104;23;21474;-84
2021/09/28 02:38:43;;;;;;;5.20;1.87;;;14.60;99.90;;;;;;6113780;23;20455;-84
2021/09/28 02:41:11;;;;;;;3.57;1.70;;;14.60;99.90;;;;;;6093087;23;20750;-84
2021/09/28 02:43:38;;;;;;;4.07;1.87;;;14.50;99.90;;;;;;6088577;23;20475;-85
2021/09/28 02:46:05;;;;;;;3.03;2.00;;;14.50;99.90;;;;;;6089723;23;20415;-86
2021/09/28 02:48:31;;;;;;;5.13;2.10;;;14.50;99.90;;;;;;6090352;23;20445;-87
2021/09/28 02:50:59;;;;;;;5.83;2.30;;;14.50;99.90;;;;;;6112072;23;20489;-85
2021/09/28 02:53:25;;;;;;;5.20;2.30;;;14.70;99.90;;;;;;6114678;23;20499;-85
2021/09/28 02:55:52;;;;;;;6.47;2.50;;;15.00;99.90;;;;;;6112306;23;20469;-84
2021/09/28 02:58:19;;;;;;;4.90;2.43;;;15.10;99.90;;;;;;6114894;23;20427;-86
2021/09/28 03:00:46;;;;;;;5.50;2.47;;;15.10;99.90;;;;;;6113605;23;20712;-85
2021/09/28 03:03:12;;;;;;;6.03;3.30;;;15.10;99.90;;;;;;6113240;23;20508;-86
2021/09/28 03:05:39;;;;;;;3.53;2.80;;;15.00;99.90;;;;;;6111485;23;20419;-87
2021/09/28 03:08:06;;;;;;;9.97;2.57;;;14.70;99.90;;;;;;6085994;23;20395;-84
2021/09/28 03:10:33;;;;;;;3.80;2.50;;;14.60;99.90;;;;;;6112614;23;20426;-85
2021/09/28 03:12:59;;;;;;;5.50;2.77;;;14.40;99.90;;;;;;6114872;23;20462;-83
2021/09/28 03:15:26;;;;;;;6.63;2.67;;;14.40;99.90;;;;;;6088690;23;20453;-84
2021/09/28 03:17:56;;;;;;;3.63;3.17;;;14.50;99.90;;;;;;6112394;23;20419;-87
2021/09/28 03:20:23;;;;;;;4.37;2.87;;;14.50;99.90;;;;;;6114834;23;20497;-86
2021/09/28 03:22:49;;;;;;;7.33;2.80;;;14.50;99.90;;;;;;6115539;23;20881;-86
2021/09/28 03:25:16;;;;;;;6.13;2.73;;;14.40;99.90;;;;;;6101138;23;20421;-86
2021/09/28 03:27:46;;;;;;;5.03;2.80;;;14.40;99.90;;;;;;6138654;23;20841;-86
2021/09/28 03:30:13;;;;;;;6.33;2.70;;;14.30;99.90;;;;;;6137556;23;20502;-84
2021/09/28 03:32:40;;;;;;;5.07;2.60;;;14.50;99.90;;;;;;6109044;23;20450;-86
2021/09/28 03:35:10;;;;;;;6.47;2.17;;;14.50;99.90;;;;;;6111828;23;20379;-85
2021/09/28 03:37:38;;;;;;;2.37;2.10;;;14.80;99.90;;;;;;6103705;23;21169;-85
2021/09/28 03:40:07;;;;;;;6.07;2.50;;;14.70;99.90;;;;;;6116678;23;20458;-86
2021/09/28 03:42:34;;;;;;;5.97;2.63;;;14.80;99.90;;;;;;6044252;23;20454;-86
2021/09/28 03:45:04;;;;;;;7.00;2.23;;;14.70;99.90;;;;;;6078962;23;20419;-85
2021/09/28 03:47:30;;;;;;;6.93;2.07;;;14.70;99.90;;;;;;6119649;23;20427;-84
2021/09/28 03:49:57;;;;;;;6.00;2.07;;;14.60;99.90;;;;;;6109311;23;20610;-83
2021/09/28 03:52:24;;;;;;;4.43;1.80;;;14.50;99.90;;;;;;6112085;23;20827;-87
2021/09/28 03:54:51;;;;;;;5.50;2.13;;;14.50;99.90;;;;;;6127575;23;20407;-86
2021/09/28 03:57:17;;;;;;;3.50;1.90;;;14.60;99.90;;;;;;6118410;23;20437;-86
2021/09/28 03:59:46;;;;;;;7.37;2.30;;;14.50;99.90;;;;;;6139885;23;20427;-85
2021/09/28 04:02:14;;;;;;;8.33;2.03;;;14.40;99.90;;;;;;6145769;23;20446;-88
2021/09/28 04:04:40;;;;;;;6.93;2.00;;;14.40;99.90;;;;;;6145857;23;20941;-86
2021/09/28 04:07:10;;;;;;;5.47;1.63;;;14.30;99.90;;;;;;6127155;23;20410;-85
2021/09/28 04:09:37;;;;;;;5.13;1.80;;;14.20;99.90;;;;;;6095853;23;20430;-84
2021/09/28 04:12:04;;;;;;;3.10;1.60;;;14.20;99.90;;;;;;6096828;23;20427;-85
2021/09/28 04:14:31;;;;;;;4.20;1.50;;;14.10;99.90;;;;;;6095753;23;20410;-86
2021/09/28 04:16:58;;;;;;;6.93;1.63;;;14.10;99.90;;;;;;6122593;23;20419;-86
2021/09/28 04:19:25;;;;;;;3.00;1.80;;;14.00;99.90;;;;;;6095150;23;20435;-84
2021/09/28 04:21:52;;;;;;;7.30;1.63;;;14.00;99.90;;;;;;6119879;23;20419;-85
2021/09/28 04:24:18;;;;;;;7.17;2.40;;;14.10;99.90;;;;;;6094686;23;20414;-85
2021/09/28 04:26:45;;;;;;;4.30;1.80;;;14.10;99.90;;;;;;6120959;23;20506;-85
2021/09/28 04:29:12;;;;;;;7.10;2.53;;;14.00;99.90;;;;;;6123655;23;20423;-84
2021/09/28 04:31:39;;;;;;;5.13;2.40;;;14.30;99.90;;;;;;6092980;23;20723;-88
2021/09/28 04:34:06;;;;;;;8.73;2.27;;;14.20;99.90;;;;;;6092213;23;20407;-85
2021/09/28 04:36:33;;;;;;;6.30;1.70;;;14.10;99.90;;;;;;6094542;23;20418;-87
2021/09/28 04:38:59;;;;;;;7.13;2.20;;;14.20;99.90;;;;;;6118753;23;20493;-84
2021/09/28 04:41:26;;;;;;;5.43;1.87;;;14.20;99.90;;;;;;6115289;23;20411;-84
2021/09/28 04:43:53;;;;;;;4.90;1.90;;;14.30;99.90;;;;;;6093802;23;20446;-84
2021/09/28 04:46:20;;;;;;;5.00;1.97;;;14.50;99.90;;;;;;6092470;23;21235;-84
2021/09/28 04:48:47;;;;;;;3.67;1.60;;;14.50;99.90;;;;;;6094646;23;20426;-86
2021/09/28 04:51:13;;;;;;;7.40;1.57;;;14.50;99.90;;;;;;6119277;23;20457;-84
2021/09/28 04:53:40;;;;;;;6.17;1.50;;;14.40;99.90;;;;;;6119589;23;20910;-87
2021/09/28 04:56:07;;;;;;;4.27;1.60;;;14.40;99.90;;;;;;6126426;23;20494;-87
2021/09/28 04:58:34;;;;;;;6.77;1.73;;;14.40;99.90;;;;;;6116086;23;20494;-85
2021/09/28 05:01:01;;;;;;;4.73;1.73;;;14.40;99.90;;;;;;6100853;23;20395;-84
2021/09/28 05:03:28;;;;;;;4.63;1.70;;;14.40;99.90;;;;;;6118600;23;20426;-85
2021/09/28 05:05:54;;;;;;;7.07;2.10;;;14.40;99.90;;;;;;6094581;23;20464;-86
2021/09/28 05:08:21;;;;;;;7.03;1.80;;;14.30;99.90;;;;;;6094869;23;20431;-85
2021/09/28 05:10:48;;;;;;;7.47;2.37;;;14.20;99.90;;;;;;6095586;23;20423;-85
2021/09/28 05:13:15;;;;;;;5.13;2.00;;;14.10;99.90;;;;;;6103723;23;20443;-84
2021/09/28 05:15:43;;;;;;;5.73;2.20;;;13.90;99.90;;;;;;6083306;23;20514;-86
2021/09/28 05:18:10;;;;;;;4.83;1.60;;;13.90;99.90;;;;;;6054750;23;20413;-85
2021/09/28 05:20:37;;;;;;;3.40;1.53;;;14.20;99.90;;;;;;6114066;23;20940;-86
2021/09/28 05:23:04;;;;;;;4.87;1.80;;;14.20;99.90;;;;;;6133596;23;20417;-85
2021/09/28 05:25:30;;;;;;;6.33;2.20;;;14.20;99.90;;;;;;6107213;23;20426;-86
2021/09/28 05:27:57;;;;;;;8.17;2.43;;;14.10;99.90;;;;;;6130649;23;20419;-84
2021/09/28 05:30:24;;;;;;;4.00;1.80;;;14.10;99.90;;;;;;6127358;23;20434;-86
2021/09/28 05:33:22;;;;;;;2.80;1.67;;;14.00;99.90;;;;;;6123919;23;20533;-85
2021/09/28 05:35:50;;;;;;;3.03;1.93;;;14.10;99.90;;;;;;6102509;23;20419;-85
2021/09/28 05:38:25;;;;;;;6.20;1.90;;;14.10;99.90;;;;;;6104872;23;20434;-86
2021/09/28 05:40:52;;;;;;;6.93;2.27;;;14.00;99.90;;;;;;6102083;23;20506;-85
2021/09/28 05:43:19;;;;;;;3.20;1.50;;;13.90;99.90;;;;;;6122175;23;20672;-86
2021/09/28 05:45:45;;;;;;;5.73;3.60;;;13.90;99.90;;;;;;6117571;23;20817;-86
2021/09/28 05:48:12;;;;;;;12.97;2.90;;;13.80;99.90;;;;;;6124348;23;20399;-85
2021/09/28 05:50:45;;;;;;;10.30;2.07;;;13.70;99.90;;;;;;6100248;23;20401;-84
2021/09/28 05:53:12;;;;;;;8.40;2.47;;;13.70;99.90;;;;;;6091359;23;20494;-85
2021/09/28 05:55:39;;;;;;;3.63;1.90;;;13.90;99.90;;;;;;6113861;23;21217;-86
2021/09/28 05:58:06;;;;;;;5.50;2.10;;;14.10;99.90;;;;;;6112933;23;20502;-85
2021/09/28 06:00:32;;;;;;;6.60;2.60;;;14.30;99.90;;;;;;6113399;23;20376;-85
2021/09/28 06:02:59;;;;;;;4.80;2.17;;;14.30;99.90;;;;;;6115518;23;20478;-85
2021/09/28 06:05:26;;;;;;;12.03;2.30;;;14.40;99.90;;;;;;6088570;23;20991;-86
2021/09/28 06:07:53;;;;;;;3.77;1.90;;;14.40;99.90;;;;;;6114497;23;20734;-85
2021/09/28 06:10:20;;;;;;;6.93;2.83;;;14.20;99.90;;;;;;6115558;23;20934;-84
2021/09/28 06:12:46;;;;;;;5.63;2.37;;;14.30;99.90;;;;;;6095421;23;20427;-85
2021/09/28 06:15:13;;;;;;;7.10;2.47;;;14.20;99.90;;;;;;6122211;23;20414;-85
2021/09/28 06:17:40;;;;;;;3.30;1.87;;;14.10;99.90;;;;;;6091043;23;20461;-85
2021/09/28 06:20:08;;;;;;;5.50;2.80;;;14.20;99.90;;;;;;6089085;23;20490;-87
2021/09/28 06:22:36;;;;;;;6.27;2.27;;;14.20;99.90;;;;;;6113482;23;20422;-85
2021/09/28 06:25:03;;;;;;;6.70;2.43;;;14.30;99.90;;;;;;6085882;23;20444;-86
2021/09/28 06:27:30;;;;;;;9.90;2.83;;;14.60;99.90;;;;;;6118032;23;20422;-86
2021/09/28 06:29:57;;;;;;;4.07;1.90;;;15.00;99.90;;;;;;6091536;23;20462;-86
2021/09/28 06:32:24;;;;;;;8.90;3.00;;;15.20;99.90;;;;;;6091125;23;20632;-87
2021/09/28 06:34:52;;;;;;;9.07;2.37;;;15.30;99.90;;;;;;6089369;23;20415;-85
2021/09/28 06:37:19;;;;;;;4.63;1.83;;;15.30;99.90;;;;;;6115446;23;20403;-85
2021/09/28 06:39:45;;;;;;;7.60;4.07;;;15.20;99.90;;;;;;6113528;23;20431;-84
2021/09/28 06:42:12;;;;;;;8.63;3.53;;;15.00;99.90;;;;;;6092242;23;20438;-86
2021/09/28 06:44:39;;;;;;;6.60;3.10;;;14.80;99.90;;;;;;6092617;23;20407;-83
2021/09/28 06:47:06;;;;;;;8.33;2.70;;;14.70;99.90;;;;;;6115633;23;20422;-84
2021/09/28 06:49:32;;;;;;;3.97;2.70;;;14.50;99.90;;;;;;6078205;23;20441;-85
2021/09/28 06:51:59;;;;;;;8.00;2.90;;;14.40;99.90;;;;;;6091659;23;20419;-86
2021/09/28 06:54:26;;;;;;;8.00;4.67;;;14.40;99.90;;;;;;6087516;23;21458;-85
2021/09/28 06:56:53;;;;;;;5.00;2.90;;;14.40;99.90;;;;;;6113725;23;20777;-87
2021/09/28 06:59:19;;;;;;;6.53;2.83;;;14.50;99.90;;;;;;6084851;23;20435;-83
2021/09/28 07:01:46;;;;;;;9.90;2.83;;;14.50;99.90;;;;;;6087860;23;21024;-86
2021/09/28 07:04:13;;;;;;;5.87;2.60;;;14.70;99.90;;;;;;6113497;23;20419;-85
2021/09/28 07:06:40;;;;;;;4.53;2.70;;;14.80;99.90;;;;;;6111936;23;20426;-85
2021/09/28 07:09:07;;;;;;;3.77;2.30;;;16.50;99.90;;;;;;6088936;23;20956;-86
2021/09/28 07:11:33;;;;;;;6.40;2.53;;;19.30;99.90;;;;;;6126630;23;20431;-85
2021/09/28 07:14:00;;;;;;;7.03;2.53;;;21.60;92.40;;;;;;6125223;23;20438;-86
2021/09/28 07:16:27;;;;;;;6.90;2.37;;;22.20;90.20;;;;;;6123090;23;20417;-85
2021/09/28 07:18:53;;;;;;;6.60;2.80;;;22.60;87.50;;;;;;6098419;23;20439;-86
2021/09/28 07:21:20;;;;;;;5.83;2.40;;;22.80;87.80;;;;;;6086610;23;20432;-86
2021/09/28 07:23:47;;;;;;;4.30;2.50;;;23.40;83.30;;;;;;6085919;23;20403;-86
2021/09/28 07:26:14;;;;;;;5.70;2.50;;;23.30;83.70;;;;;;6097383;23;20473;-84
2021/09/28 07:28:42;;;;;;;5.20;2.67;;;23.30;82.30;;;;;;6088171;23;20711;-86
2021/09/28 07:31:10;;;;;;;5.47;2.67;;;23.50;81.70;;;;;;6084516;23;20489;-87
2021/09/28 07:33:37;;;;;;;3.90;1.70;;;23.60;79.70;;;;;;6110875;23;21277;-85
2021/09/28 07:36:08;;;;;;;3.80;2.27;;;22.70;81.30;;;;;;6112836;23;20387;-84
2021/09/28 07:38:35;;;;;;;5.07;2.30;;;22.50;81.70;;;;;;6109974;23;20999;-84
2021/09/28 07:41:02;;;;;;;7.03;2.23;;;21.90;82.50;;;;;;6084001;23;20411;-86
2021/09/28 07:43:29;;;;;;;8.23;2.70;;;21.40;85.40;;;;;;6081398;23;20411;-86
2021/09/28 07:45:57;;;;;;;6.87;2.10;;;21.70;84.80;;;;;;6109475;23;20411;-85
2021/09/28 07:48:24;;;;;;;2.90;1.70;;;21.30;85.30;;;;;;6077762;23;20438;-85
2021/09/28 07:50:51;;;;;;;3.40;1.83;;;20.20;88.50;;;;;;6084978;23;20410;-83
2021/09/28 07:53:17;;;;;;;2.53;1.47;;;19.10;91.30;;;;;;6113456;23;20442;-85
2021/09/28 07:55:45;;;;;;;3.67;2.00;;;17.90;93.80;;;;;;6111283;23;20418;-86
2021/09/28 07:58:11;;;;;;;8.13;2.43;;;17.20;95.90;;;;;;6136375;23;20434;-86
2021/09/28 08:00:40;;;;;;;3.80;2.17;;;16.90;97.10;;;;;;6113262;23;20406;-88
2021/09/28 08:03:08;;;;;;;6.83;2.17;;;16.60;97.90;;;;;;6138200;23;20423;-87
2021/09/28 08:05:35;;;;;;;7.40;2.30;;;16.50;98.60;;;;;;6110613;23;20426;-87
2021/09/28 08:08:02;;;;;;;3.40;2.30;;;16.80;98.50;;;;;;6129661;23;20414;-85
2021/09/28 08:10:29;;;;;;;4.90;2.07;;;16.70;98.50;;;;;;6091876;23;20410;-87
2021/09/28 08:12:59;;;;;;;4.20;2.07;;;16.60;98.70;;;;;;6117339;23;20438;-85
2021/09/28 08:15:26;;;;;;;7.07;2.33;;;16.70;99.00;;;;;;6087618;23;20396;-86
2021/09/28 08:17:53;;;;;;;7.13;2.57;;;16.60;99.50;;;;;;6117556;23;20765;-87
2021/09/28 08:20:22;;;;;;;5.40;2.30;;;16.70;99.60;;;;;;6093124;23;20434;-85
2021/09/28 08:22:49;;;;;;;5.03;1.83;;;16.60;99.70;;;;;;6116330;23;21030;-85
2021/09/28 08:25:18;;;;;;;4.67;2.43;;;16.60;99.20;;;;;;6084333;23;20411;-86
2021/09/28 08:30:30;;;;;;;4.97;2.30;;;16.50;99.90;;;;;;6120771;23;20421;-85
2021/09/28 08:32:57;;;;;;;7.90;2.67;;;16.70;99.90;;;;;;6119210;23;20947;-86
2021/09/28 08:35:24;;;;;;;5.83;2.77;;;16.80;99.90;;;;;;6114551;23;20417;-86
2021/09/28 08:37:50;;;;;;;3.70;2.60;;;16.90;99.20;;;;;;6090929;23;20881;-87
2021/09/28 08:40:19;;;;;;;3.30;2.00;;;17.00;99.50;;;;;;6112875;23;21249;-84
2021/09/28 08:42:46;;;;;;;7.30;3.30;;;17.00;99.50;;;;;;6090774;23;20891;-86
2021/09/28 08:45:13;;;;;;;5.70;3.00;;;17.20;99.30;;;;;;6090657;23;20916;-85
2021/09/28 08:47:41;;;;;;;6.40;4.33;;;17.00;98.80;;;;;;6118307;23;20779;-87
2021/09/28 08:50:16;;;;;;;5.33;2.57;;;16.90;99.60;;;;;;6085668;23;20855;-84
2021/09/28 08:52:46;;;;;;;5.53;2.97;;;17.00;99.60;;;;;;6086661;23;20486;-87
2021/09/28 08:55:18;;;;;;;3.93;2.67;;;17.20;99.50;;;;;;6112159;23;20402;-86
2021/09/28 08:57:45;;;;;;;9.23;2.90;;;17.10;99.30;;;;;;6108993;23;20509;-87
2021/09/28 09:00:22;;;;;;;3.33;2.90;;;17.10;99.60;;;;;;6113956;23;21009;-88
2021/09/28 09:02:49;;;;;;;4.17;2.40;;;17.20;99.40;;;;;;6087999;23;20420;-88
2021/09/28 09:05:17;;;;;;;3.77;2.40;;;17.30;99.20;;;;;;6081159;23;20972;-86
2021/09/28 09:08:00;;;;;;;7.23;2.20;;;17.30;99.10;;;;;;6112617;23;21273;-87
2021/09/28 09:10:32;;;;;;;3.77;2.70;;;17.30;99.10;;;;;;6086434;23;20414;-85
2021/09/28 09:12:59;;;;;;;6.53;2.60;;;17.20;99.50;;;;;;6088340;23;20414;-85
2021/09/28 09:15:31;;;;;;;3.93;2.67;;;17.30;99.00;;;;;;6073311;23;20413;-86
2021/09/28 09:18:01;;;;;;;7.10;2.80;;;17.20;99.30;;;;;;6085419;23;20993;-87
2021/09/28 09:20:36;;;;;;;3.33;2.47;;;17.30;99.60;;;;;;6147976;23;21032;-84
2021/09/28 09:23:18;;;;;;;4.87;2.50;;;17.40;99.90;;;;;;6144427;23;20522;-86
2021/09/28 09:25:46;;;;;;;7.70;2.90;;;17.50;99.30;;;;;;6116807;23;20409;-86
2021/09/28 09:28:31;;;;;;;7.57;2.43;;;17.50;99.30;;;;;;6119139;23;20425;-85
2021/09/28 09:31:22;;;;;;;7.70;2.97;;;17.50;98.70;;;;;;6118418;23;20417;-87
2021/09/28 09:33:53;;;;;;;4.67;2.30;;;17.50;98.90;;;;;;6137582;23;20941;-85
2021/09/28 09:36:22;;;;;;;8.20;2.67;;;17.60;98.90;;;;;;6117786;23;20395;-86
2021/09/28 09:38:54;;;;;;;4.80;2.53;;;17.70;98.50;;;;;;6138247;23;20430;-85
2021/09/28 09:41:42;;;;;;;3.17;2.37;;;17.80;98.40;;;;;;6145950;23;20521;-85
2021/09/28 09:44:29;;;;;;;4.97;2.00;;;18.40;97.60;;;;;;6141133;23;20486;-86
2021/09/28 09:46:59;;;;;;;2.40;2.00;;;18.80;96.60;;;;;;6147181;23;21036;-86
2021/09/28 09:49:31;;;;;;;8.10;2.33;;;19.10;95.60;;;;;;6144112;23;20471;-84
2021/09/28 09:52:08;;;;;;;4.20;2.17;;;19.20;95.50;;;;;;6140140;23;20426;-88
2021/09/28 09:54:37;;;;;;;5.03;2.20;;;19.20;95.10;;;;;;6147994;23;20486;-86
2021/09/28 09:57:06;;;;;;;4.87;1.97;;;19.30;95.30;;;;;;6149944;23;20417;-84
2021/09/28 09:59:41;;;;;;;8.67;2.60;;;19.30;95.20;;;;;;6142988;23;20765;-83
2021/09/28 10:02:08;;;;;;;4.90;2.20;;;19.40;95.10;;;;;;6150811;23;20705;-86
2021/09/28 10:04:42;;;;;;;3.20;1.70;;;19.40;94.60;;;;;;6169763;23;20421;-87
2021/09/28 10:07:11;;;;;;;5.13;1.90;;;19.10;95.00;;;;;;6173091;23;20414;-87
2021/09/28 10:09:38;;;;;;;4.10;2.00;;;19.00;95.10;;;;;;6169400;23;20428;-86
2021/09/28 10:12:10;;;;;;;5.60;2.10;;;19.10;95.80;;;;;;6175028;23;20398;-87
2021/09/28 10:14:40;;;;;;;8.43;2.43;;;19.00;95.80;;;;;;6169459;23;20445;-86
2021/09/28 10:17:36;;;;;;;4.53;2.30;;;19.10;95.00;;;;;;6150483;23;20458;-86
2021/09/28 10:20:05;;;;;;;3.90;2.37;;;19.10;95.50;;;;;;6145627;23;20446;-84
2021/09/28 10:25:22;;;;;;;4.27;1.90;;;18.50;96.50;;;;;;6147833;23;20402;-84
2021/09/28 10:27:58;;;;;;;6.27;2.13;;;19.00;95.70;;;;;;6145785;23;20406;-83
2021/09/28 10:30:31;;;;;;;2.53;1.60;;;18.90;95.30;;;;;;6146766;23;20951;-84
2021/09/28 10:33:24;;;;;;;3.73;1.87;;;19.00;95.30;;;;;;6144896;23;20413;-87
2021/09/28 10:36:13;;;;;;;6.27;2.10;;;18.80;95.90;;;;;;6145974;23;21187;-83
2021/09/28 10:38:46;;;;;;;4.20;1.70;;;18.20;96.50;;;;;;6135280;23;20422;-87
2021/09/28 10:41:48;;;;;;;2.70;1.60;;;18.20;97.30;;;;;;6143444;23;20457;-84
2021/09/28 10:44:29;;;;;;;5.43;2.00;;;18.70;96.20;;;;;;6156236;23;20509;-86
2021/09/28 10:46:56;;;;;;;3.50;1.83;;;18.90;95.90;;;;;;6149626;23;20402;-86
2021/09/28 10:49:25;;;;;;;2.93;1.40;;;18.70;96.00;;;;;;6144258;23;20513;-87
2021/09/28 10:52:21;;;;;;;6.33;2.10;;;18.60;96.20;;;;;;6149266;23;20410;-83
2021/09/28 10:55:06;;;;;;;4.50;1.47;;;18.80;95.60;;;;;;6147002;23;21051;-86
2021/09/28 10:57:54;;;;;;;4.17;1.80;;;18.90;95.20;;;;;;6142878;23;20414;-84
2021/09/28 11:00:26;;;;;;;2.50;1.43;;;19.10;94.60;;;;;;6145568;23;20433;-83
2021/09/28 11:02:56;;;;;;;3.10;1.57;;;19.00;94.80;;;;;;6144679;23;21101;-86
2021/09/28 11:05:30;;;;;;;4.43;2.03;;;19.20;94.40;;;;;;6143051;23;20762;-84
2021/09/28 11:07:58;;;;;;;5.40;1.57;;;19.30;94.30;;;;;;6145457;23;20868;-85
2021/09/28 11:10:26;;;;;;;3.77;1.70;;;19.20;94.10;;;;;;6145624;23;21097;-86
2021/09/28 11:12:54;;;;;;;3.90;1.90;;;19.40;94.20;;;;;;6140370;23;20673;-83
2021/09/28 11:15:26;;;;;;;3.63;1.57;;;19.30;93.80;;;;;;6143986;23;20500;-85
2021/09/28 11:17:53;;;;;;;4.90;2.10;;;19.50;93.80;;;;;;6139208;23;20402;-85
2021/09/28 11:20:26;;;;;;;3.70;1.60;;;19.20;93.90;;;;;;6142366;23;20589;-87
2021/09/28 11:23:07;;;;;;;8.33;1.40;;;19.50;93.70;;;;;;6143121;23;20401;-84
2021/09/28 11:25:36;;;;;;;3.40;1.50;;;19.90;93.10;;;;;;6142164;23;20481;-84
2021/09/28 11:28:09;;;;;;;5.67;1.60;;;20.20;92.10;;;;;;6143949;23;20452;-89
2021/09/28 11:30:39;;;;;;;2.40;1.40;;;20.20;91.50;;;;;;6141962;23;20421;-84
2021/09/28 11:33:10;;;;;;;3.63;1.77;;;20.20;91.70;;;;;;6142655;23;20418;-84
2021/09/28 11:35:37;;;;;;;3.60;1.77;;;20.30;91.60;;;;;;6148290;23;20445;-86
2021/09/28 11:38:06;;;;;;;4.20;1.70;;;20.20;91.50;;;;;;6145624;23;21205;-85
2021/09/28 11:40:35;;;;;;;5.87;1.57;;;20.00;92.50;;;;;;6139061;23;20410;-86
2021/09/28 11:43:28;;;;;;;3.40;1.63;;;20.00;92.10;;;;;;6142845;23;20495;-85
2021/09/28 11:46:14;;;;;;;4.00;1.63;;;20.30;91.50;;;;;;6142390;23;20402;-86
2021/09/28 11:48:42;;;;;;;2.57;1.53;;;20.30;91.60;;;;;;6147173;23;20776;-83
2021/09/28 11:51:12;;;;;;;7.50;3.27;;;20.40;91.40;;;;;;6148098;23;20469;-85
2021/09/28 11:53:44;;;;;;;3.77;2.00;;;20.60;91.50;;;;;;6146283;23;20980;-85
2021/09/28 11:56:15;;;;;;;3.03;1.80;;;20.50;91.50;;;;;;6144336;23;20410;-85
2021/09/28 11:58:43;;;;;;;2.43;1.60;;;20.60;91.30;;;;;;6144753;23;20505;-83
2021/09/28 12:01:11;;;;;;;3.60;1.70;;;20.90;90.90;;;;;;6141736;23;20992;-84
2021/09/28 12:04:31;;;;;;;3.10;2.00;;;21.30;90.10;;;;;;6145959;23;20442;-86
2021/09/28 12:09:29;;;;;;;3.90;1.47;;;21.40;88.30;;;;;;6144688;23;20434;-87
2021/09/28 12:12:01;;;;;;;2.20;1.13;;;21.40;87.60;;;;;;6145775;23;20442;-87
2021/09/28 12:14:42;;;;;;;5.60;1.50;;;21.70;85.90;;;;;;6144150;23;21203;-84
2021/09/28 12:17:24;;;;;;;3.70;1.20;;;21.70;84.00;;;;;;6144803;23;20513;-86
2021/09/28 12:19:56;;;;;;;2.63;1.47;;;21.80;83.00;;;;;;6142526;23;20448;-85
2021/09/28 12:22:29;;;;;;;3.70;1.40;;;21.70;83.10;;;;;;6141991;23;20434;-86
2021/09/28 12:24:58;;;;;;;3.77;2.10;;;21.80;81.40;;;;;;6142691;23;20424;-87
2021/09/28 12:27:26;;;;;;;2.50;1.30;;;22.00;80.40;;;;;;6139911;23;20441;-86
2021/09/28 12:29:55;;;;;;;1.63;1.13;;;22.20;77.80;;;;;;6138725;23;20430;-85
2021/09/28 12:32:30;;;;;;;2.20;1.20;;;22.10;77.70;;;;;;6137737;23;20444;-86
2021/09/28 12:35:04;;;;;;;4.73;1.37;;;22.10;78.00;;;;;;6141477;23;20480;-83
2021/09/28 12:37:45;;;;;;;3.40;1.17;;;21.90;78.80;;;;;;6139867;23;21192;-85
2021/09/28 12:40:16;;;;;;;5.30;1.13;;;22.00;79.00;;;;;;6134950;23;20444;-86
2021/09/28 12:42:43;;;;;;;3.87;1.50;;;22.00;78.00;;;;;;6140702;23;20402;-85
2021/09/28 12:45:15;;;;;;;5.27;1.90;;;21.80;78.20;;;;;;6140220;23;20418;-84
2021/09/28 12:47:45;;;;;;;3.23;1.30;;;21.60;78.20;;;;;;6140864;23;20493;-85
2021/09/28 12:50:17;;;;;;;3.13;1.77;;;21.30;79.60;;;;;;6139056;23;20453;-85
2021/09/28 12:52:44;;;;;;;5.17;1.10;;;21.20;79.80;;;;;;6141439;23;20406;-83
2021/09/28 12:55:11;;;;;;;2.63;0.90;;;21.20;80.60;;;;;;6138616;23;20449;-86
2021/09/28 12:57:38;;;;;;;7.20;1.70;;;21.50;77.80;;;;;;6137120;23;20441;-84
2021/09/28 13:00:08;;;;;;;3.50;1.30;;;21.20;77.60;;;;;;6114481;23;20465;-88
2021/09/28 13:02:37;;;;;;;3.50;1.47;;;20.60;79.80;;;;;;6141105;23;20417;-88
2021/09/28 13:05:10;;;;;;;4.73;1.50;;;20.60;81.70;;;;;;6140887;23;20439;-86